DLH4HH EDDB-EDDF
Flight info
| Callsign | DLH4HH |
|---|---|
| Flight time | 0h 51m |
| Altitude | 20000 |
| Route | KISUC1Z KISUC Z117 ODLUN DCT ORTAG T177 ODIPI T157 KERAX KERAX5A |
| Aircraft | A321/M-SDE3FGHIRWY/LB1 |
Departure
| Time | 2026-05-07 13:53 |
|---|---|
| Airport | Berlin Brandenburg Airport (EDDB) |
Arrival
| Time | 2026-05-07 14:44 |
|---|---|
| Airport | Frankfurt Main Airport (EDDF) |
| Time | Latitude | Longitude | Altitude | Speed | Heading |
|---|---|---|---|---|---|
| 2026-05-07 13:10 | 52.36612 | 13.50439 | 155 ft | 0 kts | 69° |
| 2026-05-07 13:15 | 52.36612 | 13.50438 | 155 ft | 0 kts | 69° |
| 2026-05-07 13:27 | 52.36612 | 13.50437 | 154 ft | 0 kts | 69° |
| 2026-05-07 13:40 | 52.36612 | 13.50436 | 154 ft | 0 kts | 69° |
| 2026-05-07 13:46 | 52.36606 | 13.50412 | 154 ft | 3 kts | 69° |
| 2026-05-07 13:46 | 52.36599 | 13.50383 | 154 ft | 3 kts | 69° |
| 2026-05-07 13:46 | 52.36592 | 13.50354 | 154 ft | 3 kts | 69° |
| 2026-05-07 13:47 | 52.36586 | 13.50325 | 153 ft | 3 kts | 69° |
| 2026-05-07 13:47 | 52.36579 | 13.50296 | 152 ft | 3 kts | 69° |
| 2026-05-07 13:47 | 52.36574 | 13.50277 | 152 ft | 3 kts | 69° |
| 2026-05-07 13:47 | 52.36568 | 13.50248 | 151 ft | 3 kts | 41° |
| 2026-05-07 13:48 | 52.36551 | 13.50247 | 151 ft | 3 kts | 331° |
| 2026-05-07 13:48 | 52.36534 | 13.50262 | 151 ft | 3 kts | 339° |
| 2026-05-07 13:48 | 52.36533 | 13.50263 | 151 ft | 0 kts | 339° |
| 2026-05-07 13:49 | 52.36536 | 13.50261 | 151 ft | 1 kts | 339° |
| 2026-05-07 13:50 | 52.36559 | 13.50246 | 151 ft | 8 kts | 339° |
| 2026-05-07 13:50 | 52.36637 | 13.50198 | 151 ft | 15 kts | 339° |
| 2026-05-07 13:50 | 52.36730 | 13.50089 | 150 ft | 18 kts | 309° |
| 2026-05-07 13:50 | 52.36831 | 13.49996 | 147 ft | 16 kts | 341° |
| 2026-05-07 13:51 | 52.36849 | 13.49832 | 148 ft | 19 kts | 250° |
| 2026-05-07 13:51 | 52.36808 | 13.49652 | 148 ft | 20 kts | 250° |
| 2026-05-07 13:51 | 52.36775 | 13.49497 | 148 ft | 13 kts | 270° |
| 2026-05-07 13:51 | 52.36845 | 13.49433 | 151 ft | 10 kts | 25° |
| 2026-05-07 13:52 | 52.36909 | 13.49529 | 155 ft | 15 kts | 40° |
| 2026-05-07 13:52 | 52.37008 | 13.49662 | 157 ft | 22 kts | 44° |
| 2026-05-07 13:52 | 52.37101 | 13.49908 | 159 ft | 33 kts | 69° |
| 2026-05-07 13:52 | 52.37268 | 13.50605 | 156 ft | 102 kts | 68° |
| 2026-05-07 13:53 | 52.37593 | 13.51989 | 267 ft | 150 kts | 69° |
| 2026-05-07 13:53 | 52.37955 | 13.53564 | 1062 ft | 147 kts | 68° |
| 2026-05-07 13:53 | 52.38309 | 13.55128 | 1880 ft | 147 kts | 68° |
| 2026-05-07 13:53 | 52.38675 | 13.56696 | 2482 ft | 154 kts | 67° |
| 2026-05-07 13:54 | 52.39098 | 13.58442 | 2816 ft | 176 kts | 66° |
| 2026-05-07 13:54 | 52.39580 | 13.60427 | 3138 ft | 198 kts | 66° |
| 2026-05-07 13:54 | 52.40333 | 13.62434 | 3362 ft | 220 kts | 43° |
| 2026-05-07 13:54 | 52.41724 | 13.63723 | 3675 ft | 243 kts | 21° |
| 2026-05-07 13:55 | 52.43348 | 13.64691 | 4372 ft | 253 kts | 20° |
| 2026-05-07 13:55 | 52.45030 | 13.65683 | 5136 ft | 259 kts | 20° |
| 2026-05-07 13:55 | 52.46719 | 13.66679 | 5911 ft | 263 kts | 20° |
| 2026-05-07 13:55 | 52.48476 | 13.67717 | 6706 ft | 267 kts | 21° |
| 2026-05-07 13:56 | 52.50242 | 13.68726 | 7455 ft | 271 kts | 15° |
| 2026-05-07 13:56 | 52.52113 | 13.68909 | 8161 ft | 278 kts | 351° |
| 2026-05-07 13:56 | 52.53935 | 13.67787 | 8865 ft | 284 kts | 327° |
| 2026-05-07 13:56 | 52.55338 | 13.65492 | 9569 ft | 290 kts | 304° |
| 2026-05-07 13:57 | 52.56433 | 13.62684 | 10279 ft | 293 kts | 303° |
| 2026-05-07 13:57 | 52.57528 | 13.59846 | 10969 ft | 296 kts | 302° |
| 2026-05-07 13:57 | 52.58428 | 13.56793 | 11666 ft | 299 kts | 287° |
| 2026-05-07 13:57 | 52.58755 | 13.53403 | 12374 ft | 303 kts | 270° |
| 2026-05-07 13:58 | 52.58459 | 13.49857 | 12586 ft | 326 kts | 252° |
| 2026-05-07 13:58 | 52.57482 | 13.46381 | 12849 ft | 342 kts | 242° |
| 2026-05-07 13:58 | 52.56368 | 13.42879 | 13426 ft | 349 kts | 243° |
| 2026-05-07 13:58 | 52.55245 | 13.39322 | 14043 ft | 353 kts | 243° |
| 2026-05-07 13:59 | 52.54116 | 13.35725 | 14643 ft | 355 kts | 243° |
| 2026-05-07 13:59 | 52.52998 | 13.32153 | 15213 ft | 357 kts | 243° |
| 2026-05-07 13:59 | 52.51855 | 13.28505 | 15830 ft | 360 kts | 243° |
| 2026-05-07 13:59 | 52.50703 | 13.24842 | 16433 ft | 362 kts | 243° |
| 2026-05-07 14:00 | 52.49545 | 13.21164 | 17033 ft | 364 kts | 243° |
| 2026-05-07 14:00 | 52.48380 | 13.17461 | 17611 ft | 366 kts | 243° |
| 2026-05-07 14:00 | 52.47210 | 13.13741 | 18192 ft | 369 kts | 243° |
| 2026-05-07 14:00 | 52.46028 | 13.09999 | 18704 ft | 371 kts | 243° |
| 2026-05-07 14:01 | 52.44837 | 13.06234 | 19200 ft | 373 kts | 243° |
| 2026-05-07 14:01 | 52.43632 | 13.02433 | 19701 ft | 376 kts | 243° |
| 2026-05-07 14:01 | 52.42418 | 12.98610 | 20192 ft | 379 kts | 243° |
| 2026-05-07 14:01 | 52.41197 | 12.94771 | 20681 ft | 382 kts | 243° |
| 2026-05-07 14:02 | 52.39963 | 12.90903 | 21160 ft | 385 kts | 243° |
| 2026-05-07 14:02 | 52.38717 | 12.87005 | 21624 ft | 387 kts | 243° |
| 2026-05-07 14:02 | 52.37481 | 12.83137 | 22102 ft | 390 kts | 243° |
| 2026-05-07 14:02 | 52.36217 | 12.79191 | 22557 ft | 392 kts | 243° |
| 2026-05-07 14:03 | 52.34943 | 12.75221 | 23014 ft | 395 kts | 243° |
| 2026-05-07 14:03 | 52.33660 | 12.71227 | 23466 ft | 398 kts | 243° |
| 2026-05-07 14:03 | 52.32365 | 12.67203 | 23845 ft | 401 kts | 243° |
| 2026-05-07 14:03 | 52.31063 | 12.63159 | 24224 ft | 403 kts | 243° |
| 2026-05-07 14:04 | 52.29750 | 12.59088 | 24608 ft | 406 kts | 243° |
| 2026-05-07 14:04 | 52.28427 | 12.54989 | 24988 ft | 408 kts | 242° |
| 2026-05-07 14:04 | 52.26912 | 12.51050 | 25352 ft | 411 kts | 232° |
| 2026-05-07 14:04 | 52.24985 | 12.47587 | 25718 ft | 414 kts | 222° |
| 2026-05-07 14:05 | 52.22726 | 12.44760 | 26084 ft | 416 kts | 212° |
| 2026-05-07 14:05 | 52.20171 | 12.42526 | 26455 ft | 418 kts | 206° |
| 2026-05-07 14:05 | 52.17553 | 12.40420 | 26843 ft | 420 kts | 206° |
| 2026-05-07 14:05 | 52.14918 | 12.38302 | 27222 ft | 423 kts | 206° |
| 2026-05-07 14:06 | 52.12273 | 12.36175 | 27587 ft | 425 kts | 206° |
| 2026-05-07 14:06 | 52.09654 | 12.33893 | 27935 ft | 428 kts | 212° |
| 2026-05-07 14:06 | 52.07271 | 12.30980 | 28289 ft | 430 kts | 221° |
| 2026-05-07 14:06 | 52.05196 | 12.27463 | 28652 ft | 433 kts | 231° |
| 2026-05-07 14:07 | 52.03405 | 12.23588 | 28998 ft | 435 kts | 233° |
| 2026-05-07 14:07 | 52.01596 | 12.19628 | 29350 ft | 438 kts | 233° |
| 2026-05-07 14:07 | 51.99773 | 12.15662 | 29718 ft | 439 kts | 232° |
| 2026-05-07 14:07 | 51.97935 | 12.11677 | 30009 ft | 442 kts | 232° |
| 2026-05-07 14:08 | 51.96116 | 12.07741 | 30049 ft | 428 kts | 232° |
| 2026-05-07 14:08 | 51.94363 | 12.03950 | 30048 ft | 415 kts | 232° |
| 2026-05-07 14:08 | 51.92643 | 12.00237 | 30050 ft | 411 kts | 232° |
| 2026-05-07 14:09 | 51.89225 | 11.92853 | 30052 ft | 409 kts | 232° |
| 2026-05-07 14:09 | 51.85807 | 11.85487 | 30053 ft | 409 kts | 232° |
| 2026-05-07 14:10 | 51.82377 | 11.78141 | 30057 ft | 409 kts | 232° |
| 2026-05-07 14:10 | 51.78913 | 11.70852 | 30061 ft | 409 kts | 231° |
| 2026-05-07 14:11 | 51.75463 | 11.63628 | 30061 ft | 408 kts | 232° |
| 2026-05-07 14:11 | 51.71989 | 11.56347 | 30063 ft | 409 kts | 232° |
| 2026-05-07 14:12 | 51.68501 | 11.49090 | 30066 ft | 409 kts | 229° |
| 2026-05-07 14:12 | 51.64595 | 11.42501 | 30069 ft | 409 kts | 224° |
| 2026-05-07 14:13 | 51.60580 | 11.35976 | 30062 ft | 409 kts | 224° |
| 2026-05-07 14:13 | 51.56567 | 11.29464 | 30063 ft | 410 kts | 224° |
| 2026-05-07 14:14 | 51.52580 | 11.22977 | 30062 ft | 410 kts | 224° |
| 2026-05-07 14:14 | 51.48559 | 11.16460 | 30063 ft | 410 kts | 224° |
| 2026-05-07 14:15 | 51.44525 | 11.09953 | 30069 ft | 411 kts | 224° |
| 2026-05-07 14:15 | 51.40540 | 11.03534 | 29581 ft | 405 kts | 224° |
| 2026-05-07 14:15 | 51.38569 | 11.00356 | 29157 ft | 400 kts | 224° |
| 2026-05-07 14:16 | 51.36616 | 10.97213 | 28736 ft | 396 kts | 224° |
| 2026-05-07 14:16 | 51.34679 | 10.94108 | 28324 ft | 393 kts | 224° |
| 2026-05-07 14:16 | 51.32746 | 10.91017 | 27905 ft | 391 kts | 224° |
| 2026-05-07 14:16 | 51.30829 | 10.87951 | 27496 ft | 388 kts | 224° |
| 2026-05-07 14:17 | 51.28918 | 10.84899 | 27095 ft | 386 kts | 224° |
| 2026-05-07 14:17 | 51.27023 | 10.81876 | 26701 ft | 383 kts | 225° |
| 2026-05-07 14:17 | 51.25139 | 10.78876 | 26312 ft | 381 kts | 225° |
| 2026-05-07 14:17 | 51.23297 | 10.75944 | 25935 ft | 378 kts | 225° |
| 2026-05-07 14:18 | 51.21435 | 10.72980 | 25543 ft | 376 kts | 225° |
| 2026-05-07 14:18 | 51.19589 | 10.70045 | 25178 ft | 373 kts | 225° |
| 2026-05-07 14:18 | 51.17753 | 10.67130 | 24812 ft | 371 kts | 225° |
| 2026-05-07 14:18 | 51.15925 | 10.64231 | 24448 ft | 369 kts | 225° |
| 2026-05-07 14:19 | 51.14111 | 10.61360 | 24089 ft | 367 kts | 225° |
| 2026-05-07 14:19 | 51.12331 | 10.58545 | 23736 ft | 365 kts | 225° |
| 2026-05-07 14:19 | 51.10534 | 10.55709 | 23346 ft | 362 kts | 225° |
| 2026-05-07 14:19 | 51.08747 | 10.52893 | 22922 ft | 360 kts | 225° |
| 2026-05-07 14:20 | 51.06970 | 10.50095 | 22515 ft | 358 kts | 225° |
| 2026-05-07 14:20 | 51.05208 | 10.47322 | 22104 ft | 355 kts | 225° |
| 2026-05-07 14:20 | 51.03458 | 10.44572 | 21705 ft | 353 kts | 225° |
| 2026-05-07 14:20 | 51.01709 | 10.41827 | 21310 ft | 351 kts | 225° |
| 2026-05-07 14:21 | 50.99978 | 10.39114 | 20922 ft | 349 kts | 225° |
| 2026-05-07 14:21 | 50.98274 | 10.36446 | 20542 ft | 346 kts | 225° |
| 2026-05-07 14:21 | 50.96564 | 10.33773 | 20156 ft | 344 kts | 225° |
| 2026-05-07 14:21 | 50.94861 | 10.31115 | 19783 ft | 342 kts | 225° |
| 2026-05-07 14:22 | 50.93168 | 10.28474 | 19420 ft | 340 kts | 225° |
| 2026-05-07 14:22 | 50.91486 | 10.25849 | 19054 ft | 338 kts | 226° |
| 2026-05-07 14:22 | 50.89814 | 10.23241 | 18692 ft | 336 kts | 225° |
| 2026-05-07 14:22 | 50.88150 | 10.20648 | 18335 ft | 334 kts | 225° |
| 2026-05-07 14:23 | 50.86499 | 10.18078 | 17922 ft | 332 kts | 225° |
| 2026-05-07 14:23 | 50.84858 | 10.15531 | 17521 ft | 330 kts | 225° |
| 2026-05-07 14:23 | 50.83223 | 10.12996 | 17125 ft | 328 kts | 226° |
| 2026-05-07 14:23 | 50.81599 | 10.10479 | 16729 ft | 326 kts | 226° |
| 2026-05-07 14:24 | 50.79984 | 10.07975 | 16337 ft | 324 kts | 225° |
| 2026-05-07 14:24 | 50.78398 | 10.05519 | 16031 ft | 323 kts | 225° |
| 2026-05-07 14:24 | 50.76794 | 10.03040 | 15755 ft | 322 kts | 226° |
| 2026-05-07 14:24 | 50.75194 | 10.00572 | 15474 ft | 321 kts | 225° |
| 2026-05-07 14:25 | 50.73598 | 9.98109 | 15195 ft | 319 kts | 226° |
| 2026-05-07 14:25 | 50.72012 | 9.95663 | 14931 ft | 318 kts | 226° |
| 2026-05-07 14:25 | 50.70432 | 9.93227 | 14662 ft | 317 kts | 226° |
| 2026-05-07 14:25 | 50.68852 | 9.90797 | 14393 ft | 316 kts | 226° |
| 2026-05-07 14:26 | 50.67282 | 9.88384 | 14120 ft | 315 kts | 226° |
| 2026-05-07 14:26 | 50.65715 | 9.85978 | 13859 ft | 314 kts | 226° |
| 2026-05-07 14:26 | 50.64155 | 9.83584 | 13575 ft | 312 kts | 226° |
| 2026-05-07 14:26 | 50.62618 | 9.81229 | 13280 ft | 311 kts | 226° |
| 2026-05-07 14:27 | 50.61069 | 9.78859 | 12975 ft | 309 kts | 226° |
| 2026-05-07 14:27 | 50.59527 | 9.76503 | 12684 ft | 308 kts | 226° |
| 2026-05-07 14:27 | 50.57990 | 9.74161 | 12396 ft | 307 kts | 226° |
| 2026-05-07 14:27 | 50.56464 | 9.71833 | 12112 ft | 305 kts | 226° |
| 2026-05-07 14:28 | 50.54939 | 9.69508 | 11829 ft | 304 kts | 226° |
| 2026-05-07 14:28 | 50.53422 | 9.67202 | 11552 ft | 303 kts | 226° |
| 2026-05-07 14:28 | 50.51926 | 9.64929 | 11276 ft | 302 kts | 226° |
| 2026-05-07 14:28 | 50.50420 | 9.62636 | 11074 ft | 300 kts | 226° |
| 2026-05-07 14:29 | 50.48920 | 9.60346 | 11046 ft | 301 kts | 226° |
| 2026-05-07 14:29 | 50.47416 | 9.58049 | 11051 ft | 301 kts | 226° |
| 2026-05-07 14:29 | 50.45930 | 9.55783 | 11047 ft | 301 kts | 226° |
| 2026-05-07 14:29 | 50.44428 | 9.53494 | 10908 ft | 299 kts | 226° |
| 2026-05-07 14:30 | 50.42939 | 9.51232 | 10490 ft | 297 kts | 226° |
| 2026-05-07 14:30 | 50.41466 | 9.48997 | 10198 ft | 291 kts | 226° |
| 2026-05-07 14:30 | 50.40017 | 9.46794 | 9841 ft | 289 kts | 226° |
| 2026-05-07 14:30 | 50.38582 | 9.44608 | 9426 ft | 287 kts | 226° |
| 2026-05-07 14:31 | 50.37159 | 9.42442 | 9033 ft | 284 kts | 226° |
| 2026-05-07 14:31 | 50.35746 | 9.40293 | 8655 ft | 282 kts | 226° |
| 2026-05-07 14:31 | 50.34335 | 9.38146 | 8015 ft | 288 kts | 226° |
| 2026-05-07 14:31 | 50.32854 | 9.35889 | 7306 ft | 311 kts | 226° |
| 2026-05-07 14:32 | 50.31260 | 9.33565 | 7108 ft | 313 kts | 218° |
| 2026-05-07 14:32 | 50.29338 | 9.32158 | 7037 ft | 298 kts | 197° |
| 2026-05-07 14:32 | 50.27379 | 9.31418 | 7046 ft | 282 kts | 194° |
| 2026-05-07 14:32 | 50.25512 | 9.30775 | 6976 ft | 268 kts | 194° |
| 2026-05-07 14:33 | 50.23724 | 9.30168 | 6850 ft | 258 kts | 194° |
| 2026-05-07 14:33 | 50.22005 | 9.29593 | 6644 ft | 246 kts | 194° |
| 2026-05-07 14:33 | 50.20344 | 9.29047 | 6219 ft | 244 kts | 194° |
| 2026-05-07 14:33 | 50.18689 | 9.28506 | 5898 ft | 242 kts | 194° |
| 2026-05-07 14:34 | 50.17048 | 9.27967 | 5578 ft | 240 kts | 194° |
| 2026-05-07 14:34 | 50.15412 | 9.27423 | 5237 ft | 240 kts | 194° |
| 2026-05-07 14:34 | 50.13791 | 9.26883 | 5013 ft | 233 kts | 194° |
| 2026-05-07 14:34 | 50.12257 | 9.26373 | 5018 ft | 220 kts | 194° |
| 2026-05-07 14:35 | 50.10897 | 9.25417 | 5004 ft | 214 kts | 224° |
| 2026-05-07 14:35 | 50.10112 | 9.23539 | 5012 ft | 210 kts | 250° |
| 2026-05-07 14:35 | 50.09618 | 9.21403 | 5010 ft | 210 kts | 253° |
| 2026-05-07 14:35 | 50.09165 | 9.19242 | 5009 ft | 210 kts | 254° |
| 2026-05-07 14:36 | 50.08716 | 9.17079 | 5008 ft | 210 kts | 254° |
| 2026-05-07 14:36 | 50.08266 | 9.14922 | 5003 ft | 210 kts | 254° |
| 2026-05-07 14:36 | 50.07866 | 9.12739 | 5001 ft | 209 kts | 265° |
| 2026-05-07 14:36 | 50.08127 | 9.10572 | 5008 ft | 206 kts | 297° |
| 2026-05-07 14:37 | 50.08857 | 9.08649 | 5010 ft | 206 kts | 303° |
| 2026-05-07 14:37 | 50.10327 | 9.05196 | 5006 ft | 206 kts | 303° |
| 2026-05-07 14:37 | 50.10758 | 9.03896 | 4863 ft | 204 kts | 287° |
| 2026-05-07 14:38 | 50.10971 | 9.01713 | 4478 ft | 205 kts | 275° |
| 2026-05-07 14:38 | 50.11053 | 8.99499 | 4106 ft | 205 kts | 274° |
| 2026-05-07 14:38 | 50.11117 | 8.97298 | 4006 ft | 204 kts | 274° |
| 2026-05-07 14:38 | 50.11200 | 8.94357 | 4010 ft | 205 kts | 274° |
| 2026-05-07 14:39 | 50.11240 | 8.92857 | 4011 ft | 205 kts | 274° |
| 2026-05-07 14:39 | 50.11301 | 8.90633 | 4010 ft | 206 kts | 273° |
| 2026-05-07 14:39 | 50.11064 | 8.88437 | 4005 ft | 208 kts | 253° |
| 2026-05-07 14:39 | 50.10563 | 8.86323 | 4005 ft | 208 kts | 251° |
| 2026-05-07 14:40 | 50.10063 | 8.84238 | 3837 ft | 202 kts | 251° |
| 2026-05-07 14:40 | 50.09587 | 8.82231 | 3603 ft | 198 kts | 251° |
| 2026-05-07 14:40 | 50.09121 | 8.80253 | 3348 ft | 191 kts | 251° |
| 2026-05-07 14:40 | 50.08673 | 8.78354 | 3085 ft | 181 kts | 251° |
| 2026-05-07 14:41 | 50.08244 | 8.76539 | 2851 ft | 177 kts | 252° |
| 2026-05-07 14:41 | 50.07820 | 8.74744 | 2595 ft | 176 kts | 252° |
| 2026-05-07 14:41 | 50.07414 | 8.73029 | 2367 ft | 160 kts | 251° |
| 2026-05-07 14:41 | 50.07125 | 8.71438 | 2127 ft | 149 kts | 264° |
| 2026-05-07 14:42 | 50.07023 | 8.69867 | 1911 ft | 145 kts | 266° |
| 2026-05-07 14:42 | 50.06810 | 8.68324 | 1743 ft | 145 kts | 253° |
| 2026-05-07 14:42 | 50.06444 | 8.66851 | 1571 ft | 147 kts | 252° |
| 2026-05-07 14:42 | 50.06097 | 8.65364 | 1406 ft | 146 kts | 252° |
| 2026-05-07 14:43 | 50.05748 | 8.63887 | 1174 ft | 143 kts | 251° |
| 2026-05-07 14:43 | 50.05413 | 8.62475 | 954 ft | 136 kts | 250° |
| 2026-05-07 14:43 | 50.05091 | 8.61113 | 754 ft | 135 kts | 251° |
| 2026-05-07 14:43 | 50.04761 | 8.59746 | 574 ft | 134 kts | 250° |
| 2026-05-07 14:44 | 50.04442 | 8.58405 | 386 ft | 128 kts | 250° |
| 2026-05-07 14:44 | 50.04164 | 8.57236 | 367 ft | 96 kts | 250° |
| 2026-05-07 14:44 | 50.03994 | 8.56517 | 358 ft | 44 kts | 252° |
| 2026-05-07 14:44 | 50.04014 | 8.56189 | 354 ft | 19 kts | 281° |
| 2026-05-07 14:45 | 50.04037 | 8.56137 | 356 ft | 0 kts | 354° |
| 2026-05-07 14:46 | 50.04045 | 8.56135 | 354 ft | 4 kts | 351° |
| 2026-05-07 14:46 | 50.04096 | 8.56163 | 354 ft | 12 kts | 52° |
| 2026-05-07 14:46 | 50.04160 | 8.56278 | 353 ft | 14 kts | 6° |
| 2026-05-07 14:46 | 50.04241 | 8.56241 | 358 ft | 15 kts | 338° |
| 2026-05-07 14:47 | 50.04290 | 8.56133 | 355 ft | 13 kts | 266° |
| 2026-05-07 14:47 | 50.04356 | 8.56047 | 364 ft | 16 kts | 342° |
| 2026-05-07 14:47 | 50.04447 | 8.56095 | 360 ft | 15 kts | 70° |
| 2026-05-07 14:47 | 50.04492 | 8.56285 | 362 ft | 22 kts | 69° |
| 2026-05-07 14:48 | 50.04559 | 8.56447 | 358 ft | 9 kts | 27° |
| 2026-05-07 14:48 | 50.04601 | 8.56477 | 363 ft | 2 kts | 25° |
| 2026-05-07 14:48 | 50.04614 | 8.56510 | 364 ft | 7 kts | 95° |
| 2026-05-07 14:48 | 50.04587 | 8.56599 | 357 ft | 5 kts | 115° |
| 2026-05-07 14:49 | 50.04580 | 8.56620 | 360 ft | 0 kts | 115° |